Time;durP1;ratioP1;P1;durP2;ratioP2;P2;SDS_P1;SDS_P2;PMS_P1;PMS_P2;Temp;Humidity;BMP_temperature;BMP_pressure;BME280_temperature;BME280_humidity;BME280_pressure;Samples;Min_cycle;Max_cycle;Signal;HPM_P1;HPM_P2
2022/07/24 00:01:40;;;;;;;4.75;4.45;;;;;;;17.14;100.00;100779.02;1786413;80;21672;-88
2022/07/24 00:04:08;;;;;;;6.25;4.53;;;;;;;17.08;100.00;100778.33;1786415;79;20994;-88
2022/07/24 00:06:35;;;;;;;4.60;4.20;;;;;;;17.03;100.00;100774.84;1786372;79;22388;-88
2022/07/24 00:09:04;;;;;;;5.08;4.58;;;;;;;17.00;100.00;100776.45;1786597;80;21064;-88
2022/07/24 00:11:31;;;;;;;4.97;4.58;;;;;;;17.00;100.00;100772.03;1786478;79;21044;-88
2022/07/24 00:14:00;;;;;;;5.00;4.50;;;;;;;17.02;100.00;100772.69;1786079;79;21025;-88
2022/07/24 00:16:28;;;;;;;4.90;4.50;;;;;;;17.05;100.00;100779.47;1785963;80;21005;-89
2022/07/24 00:18:55;;;;;;;8.25;4.90;;;;;;;17.02;100.00;100790.28;1786230;79;21507;-88
2022/07/24 00:21:23;;;;;;;4.85;4.45;;;;;;;16.93;100.00;100782.84;1786137;80;21013;-88
2022/07/24 00:23:50;;;;;;;5.20;4.70;;;;;;;16.86;100.00;100789.16;1786218;80;21009;-88
2022/07/24 00:26:17;;;;;;;4.60;4.20;;;;;;;16.79;100.00;100782.02;1785986;79;21117;-88
2022/07/24 00:28:44;;;;;;;4.67;4.22;;;;;;;16.77;100.00;100776.10;1786547;79;20990;-88
2022/07/24 00:31:11;;;;;;;4.80;4.50;;;;;;;16.80;100.00;100775.78;1790327;78;21121;-88
2022/07/24 00:33:38;;;;;;;5.75;4.83;;;;;;;16.81;100.00;100774.80;1798525;79;21085;-88
2022/07/24 00:36:07;;;;;;;5.50;4.60;;;;;;;16.81;100.00;100780.06;1802138;79;21049;-88
2022/07/24 00:38:34;;;;;;;5.53;5.10;;;;;;;16.81;100.00;100780.06;1800223;79;21263;-88
2022/07/24 00:41:02;;;;;;;5.10;4.67;;;;;;;16.82;100.00;100781.72;1802610;79;21042;-89
2022/07/24 00:43:30;;;;;;;7.65;4.78;;;;;;;16.85;100.00;100785.38;1792872;79;21124;-88
2022/07/24 00:45:57;;;;;;;5.28;4.62;;;;;;;16.86;100.00;100779.95;1802819;79;21534;-88
2022/07/24 00:48:25;;;;;;;5.45;4.95;;;;;;;16.83;100.00;100778.93;1804727;79;20995;-88
2022/07/24 00:50:52;;;;;;;5.05;4.65;;;;;;;16.81;100.00;100776.96;1804575;79;21133;-89
2022/07/24 00:53:19;;;;;;;5.25;4.72;;;;;;;16.80;100.00;100773.99;1804940;79;21069;-88
2022/07/24 00:55:47;;;;;;;5.78;4.42;;;;;;;16.81;100.00;100774.80;1804716;79;21543;-88
2022/07/24 00:58:14;;;;;;;4.78;4.37;;;;;;;16.80;100.00;100781.04;1804783;79;21042;-88
2022/07/24 01:00:41;;;;;;;5.30;4.80;;;;;;;16.81;100.00;100781.38;1804647;79;21503;-88
2022/07/24 01:03:08;;;;;;;5.70;4.25;;;;;;;16.83;100.00;100788.63;1804784;79;21130;-88
2022/07/24 01:05:36;;;;;;;4.67;4.37;;;;;;;16.85;100.00;100795.39;1804695;79;20999;-88
2022/07/24 01:08:03;;;;;;;6.40;4.53;;;;;;;16.87;100.00;100803.96;1804651;79;21050;-88
2022/07/24 01:10:31;;;;;;;4.75;4.35;;;;;;;16.91;100.00;100801.00;1804725;79;20943;-88
2022/07/24 01:12:58;;;;;;;5.95;4.62;;;;;;;16.94;100.00;100799.43;1804647;79;21096;-88
2022/07/24 01:15:25;;;;;;;5.80;5.25;;;;;;;16.98;100.00;100800.80;1804711;79;21135;-88
2022/07/24 01:17:53;;;;;;;4.72;4.40;;;;;;;17.02;100.00;100805.56;1804411;79;20990;-88
2022/07/24 01:20:21;;;;;;;5.00;4.60;;;;;;;17.05;100.00;100803.61;1804665;79;20967;-88
2022/07/24 01:22:48;;;;;;;5.33;4.80;;;;;;;17.07;100.00;100802.98;1804953;79;21050;-88
2022/07/24 01:25:15;;;;;;;6.28;4.53;;;;;;;17.08;100.00;100805.95;1804607;79;20994;-88
2022/07/24 01:27:42;;;;;;;5.70;5.17;;;;;;;17.07;100.00;100799.03;1804971;79;21082;-88
2022/07/24 01:30:11;;;;;;;5.75;4.65;;;;;;;17.06;100.00;100801.33;1804606;79;21058;-88
2022/07/24 01:32:40;;;;;;;5.42;5.03;;;;;;;16.99;100.00;100792.73;1804602;79;21073;-87
2022/07/24 01:35:08;;;;;;;5.72;5.22;;;;;;;16.98;100.00;100788.95;1804533;79;21547;-88
2022/07/24 01:37:35;;;;;;;5.80;4.85;;;;;;;16.93;100.00;100790.73;1803723;79;21021;-89
2022/07/24 01:40:03;;;;;;;5.92;5.50;;;;;;;16.87;100.00;100786.02;1804831;79;21135;-91
2022/07/24 01:42:30;;;;;;;6.67;5.25;;;;;;;16.83;100.00;100788.13;1802722;79;21085;-89
2022/07/24 01:44:59;;;;;;;5.22;4.83;;;;;;;16.81;100.00;100785.33;1728475;81;21105;-89
2022/07/24 01:47:26;;;;;;;5.97;5.47;;;;;;;16.77;100.00;100791.88;1802924;79;21057;-89
2022/07/24 01:49:55;;;;;;;5.17;4.78;;;;;;;16.70;100.00;100794.28;1780429;80;21053;-89
2022/07/24 01:52:25;;;;;;;5.83;5.42;;;;;;;16.62;100.00;100788.48;1781888;80;21087;-89
2022/07/24 01:54:52;;;;;;;6.20;5.60;;;;;;;16.53;100.00;100787.55;1781595;80;20927;-89
2022/07/24 01:57:19;;;;;;;5.72;5.22;;;;;;;16.49;100.00;100789.31;1781720;80;21088;-88
2022/07/24 01:59:47;;;;;;;5.42;5.03;;;;;;;16.48;100.00;100788.51;1781656;80;21029;-88
2022/07/24 02:02:15;;;;;;;5.42;5.03;;;;;;;16.46;100.00;100785.20;1781693;80;21072;-88
2022/07/24 02:04:42;;;;;;;6.28;5.78;;;;;;;16.45;100.00;100782.72;1781830;80;21236;-88
2022/07/24 02:07:09;;;;;;;6.03;5.53;;;;;;;16.43;100.00;100778.09;1781553;80;21037;-88
2022/07/24 02:09:36;;;;;;;5.42;5.03;;;;;;;16.43;100.00;100786.80;1802633;78;21074;-88
2022/07/24 02:12:04;;;;;;;6.00;5.50;;;;;;;16.39;100.00;100798.09;1807392;79;20955;-89
2022/07/24 02:14:32;;;;;;;6.72;5.60;;;;;;;16.37;100.00;100793.97;1807324;79;21054;-88
2022/07/24 02:16:59;;;;;;;6.17;5.67;;;;;;;16.37;100.00;100795.28;1807327;79;21108;-88
2022/07/24 02:19:27;;;;;;;6.75;6.12;;;;;;;16.34;100.00;100790.34;1728503;83;21046;-88
2022/07/24 02:21:54;;;;;;;6.87;6.30;;;;;;;16.24;100.00;100795.17;1807690;79;21031;-88
2022/07/24 02:24:23;;;;;;;6.97;5.70;;;;;;;16.10;100.00;100793.05;1728563;81;21037;-89
2022/07/24 02:26:51;;;;;;;6.95;6.03;;;;;;;16.02;100.00;100793.77;1807324;79;21046;-89
2022/07/24 02:29:19;;;;;;;6.80;6.20;;;;;;;15.99;100.00;100790.11;1728603;83;21115;-89
2022/07/24 02:31:46;;;;;;;8.00;7.20;;;;;;;16.00;100.00;100797.52;1807409;79;21073;-89
2022/07/24 02:34:13;;;;;;;7.83;7.12;;;;;;;15.99;100.00;100795.87;1728496;83;21007;-88
2022/07/24 02:36:40;;;;;;;8.00;7.20;;;;;;;15.96;100.00;100793.52;1807534;79;21042;-89
2022/07/24 02:39:09;;;;;;;8.05;7.25;;;;;;;15.90;100.00;100801.02;1728476;83;20999;-88
2022/07/24 02:41:37;;;;;;;7.55;6.95;;;;;;;15.82;100.00;100800.89;1813589;79;21026;-88
2022/07/24 02:44:05;;;;;;;7.15;6.50;;;;;;;15.80;100.00;100795.45;1806003;78;21065;-89
2022/07/24 02:46:32;;;;;;;7.42;6.83;;;;;;;15.80;100.00;100796.77;1805309;79;21449;-88
2022/07/24 02:49:00;;;;;;;7.58;6.90;;;;;;;15.82;100.00;100792.20;1805692;79;21089;-88
2022/07/24 02:51:27;;;;;;;7.20;6.50;;;;;;;15.86;100.00;100791.80;1805583;78;21069;-88
2022/07/24 02:53:54;;;;;;;7.33;6.67;;;;;;;15.89;100.00;100791.48;1805649;78;21116;-88
2022/07/24 02:56:21;;;;;;;8.08;7.33;;;;;;;15.92;100.00;100789.05;1805478;79;21050;-89
2022/07/24 02:58:48;;;;;;;9.65;8.75;;;;;;;15.96;100.00;100791.73;1805681;78;21039;-88
2022/07/24 03:01:17;;;;;;;10.20;8.65;;;;;;;16.02;100.00;100799.02;1805139;78;21033;-89
2022/07/24 03:03:45;;;;;;;8.78;8.03;;;;;;;16.10;100.00;100798.30;1805503;78;21005;-88
2022/07/24 03:06:12;;;;;;;8.33;7.47;;;;;;;16.17;100.00;100800.68;1805278;79;21220;-87
2022/07/24 03:08:39;;;;;;;11.85;7.15;;;;;;;16.23;100.00;100803.18;1805759;78;20983;-88
2022/07/24 03:11:06;;;;;;;7.28;6.78;;;;;;;16.31;100.00;100812.47;1805390;78;21053;-89
2022/07/24 03:13:33;;;;;;;7.97;7.17;;;;;;;16.40;100.00;100816.83;1805581;78;21117;-88
2022/07/24 03:16:02;;;;;;;7.45;6.85;;;;;;;16.48;100.00;100820.05;1805212;78;21488;-88
2022/07/24 03:18:29;;;;;;;7.50;6.90;;;;;;;16.56;100.00;100816.19;1805387;79;21140;-91
2022/07/24 03:20:58;;;;;;;7.70;6.92;;;;;;;16.63;100.00;100815.08;1805297;79;20995;-95
2022/07/24 03:23:25;;;;;;;8.63;7.80;;;;;;;16.74;100.00;100817.15;1805250;79;21085;-94
2022/07/24 03:25:54;;;;;;;8.15;7.28;;;;;;;16.82;100.00;100818.06;1805194;79;21014;-93
2022/07/24 03:28:21;;;;;;;8.55;7.80;;;;;;;16.91;100.00;100813.69;1802352;78;21503;-95
2022/07/24 03:30:49;;;;;;;8.15;7.35;;;;;;;17.00;100.00;100809.33;1785100;80;21151;-96
2022/07/24 03:33:16;;;;;;;8.23;7.40;;;;;;;17.07;100.00;100812.19;1786846;80;21032;-96
2022/07/24 03:35:43;;;;;;;9.40;8.50;;;;;;;17.15;100.00;100809.62;1787355;80;20895;-96
2022/07/24 03:38:10;;;;;;;8.65;7.95;;;;;;;17.22;100.00;100819.86;1786101;80;20946;-96
2022/07/24 03:40:38;;;;;;;9.45;8.73;;;;;;;17.28;100.00;100819.23;1808416;78;21026;-96
2022/07/24 03:43:05;;;;;;;10.43;9.53;;;;;;;17.34;100.00;100825.22;1814634;78;21121;-96
2022/07/24 03:45:33;;;;;;;9.43;8.58;;;;;;;17.42;100.00;100828.38;1807668;79;20907;-96
2022/07/24 03:48:00;;;;;;;10.65;9.75;;;;;;;17.52;100.00;100831.40;1813385;79;20963;-95
2022/07/24 03:50:29;;;;;;;10.03;9.08;;;;;;;17.61;100.00;100822.06;1815829;78;21464;-94
2022/07/24 03:52:56;;;;;;;8.68;7.97;;;;;;;17.71;100.00;100815.36;1813047;77;21045;-94
2022/07/24 03:55:25;;;;;;;8.58;7.85;;;;;;;17.82;100.00;100812.97;1813308;79;21500;-95
2022/07/24 03:57:53;;;;;;;7.87;7.22;;;;;;;17.91;100.00;100811.98;1789123;79;21567;-95
2022/07/24 04:00:20;;;;;;;7.85;7.15;;;;;;;18.02;100.00;100817.99;1772532;81;21588;-94
2022/07/24 04:02:47;;;;;;;7.90;7.20;;;;;;;18.10;100.00;100805.69;1772932;81;21022;-93
2022/07/24 04:05:14;;;;;;;8.10;7.30;;;;;;;18.21;100.00;100807.20;1772747;80;21018;-93
2022/07/24 04:07:42;;;;;;;7.30;6.70;;;;;;;18.32;100.00;100809.17;1772694;81;21238;-93
2022/07/24 04:10:09;;;;;;;8.98;6.65;;;;;;;18.41;100.00;100811.69;1772691;80;21504;-93
2022/07/24 04:12:38;;;;;;;8.10;7.47;;;;;;;18.53;100.00;100816.16;1772714;80;21049;-94
2022/07/24 04:15:06;;;;;;;8.60;7.80;;;;;;;18.66;100.00;100809.08;1773266;81;21374;-94
2022/07/24 04:17:33;;;;;;;9.15;7.78;;;;;;;18.76;100.00;100808.41;1772929;81;21069;-93
2022/07/24 04:20:01;;;;;;;9.73;8.75;;;;;;;18.86;100.00;100810.91;1772912;80;21820;-95
2022/07/24 04:22:30;;;;;;;9.00;8.30;;;;;;;18.96;100.00;100809.44;1802323;79;21005;-94
2022/07/24 04:24:58;;;;;;;8.78;7.97;;;;;;;19.03;100.00;100807.78;1803927;79;21125;-95
2022/07/24 04:27:25;;;;;;;10.40;9.43;;;;;;;19.11;100.00;100805.61;1804644;79;21018;-93
2022/07/24 04:29:52;;;;;;;9.45;8.55;;;;;;;19.20;100.00;100798.52;1804224;79;21045;-94
2022/07/24 04:32:19;;;;;;;9.05;7.95;;;;;;;19.29;100.00;100801.95;1804801;79;21476;-94
2022/07/24 04:34:46;;;;;;;8.00;7.20;;;;;;;19.40;100.00;100791.05;1804185;79;21045;-94
2022/07/24 04:37:14;;;;;;;8.28;7.15;;;;;;;19.51;100.00;100801.23;1804329;79;21027;-94
2022/07/24 04:39:42;;;;;;;7.37;6.78;;;;;;;19.65;100.00;100804.19;1804417;79;21066;-94
2022/07/24 04:42:09;;;;;;;7.70;7.10;;;;;;;19.74;100.00;100795.24;1784729;79;21066;-96
2022/07/24 04:44:36;;;;;;;7.72;7.03;;;;;;;19.83;100.00;100795.51;1794502;79;21145;-95
2022/07/24 04:47:03;;;;;;;7.62;6.92;;;;;;;19.94;100.00;100793.52;1799739;78;21512;-94
2022/07/24 04:49:31;;;;;;;7.95;7.25;;;;;;;20.05;100.00;100782.57;1792821;79;21030;-93
2022/07/24 04:51:58;;;;;;;7.60;6.78;;;;;;;20.13;100.00;100786.48;1748675;82;21069;-94
2022/07/24 04:54:26;;;;;;;7.62;6.83;;;;;;;20.20;100.00;100779.17;1748782;82;21025;-93
2022/07/24 04:56:54;;;;;;;6.47;5.87;;;;;;;20.27;100.00;100779.60;1783700;80;21208;-94
2022/07/24 04:59:22;;;;;;;8.45;6.67;;;;;;;20.37;100.00;100779.40;1748715;82;21030;-93
2022/07/24 05:01:49;;;;;;;7.20;6.55;;;;;;;20.47;100.00;100784.44;1748876;81;21626;-90
2022/07/24 05:04:16;;;;;;;7.37;6.40;;;;;;;20.57;100.00;100781.55;1783523;80;20994;-90
2022/07/24 05:06:45;;;;;;;6.87;6.28;;;;;;;20.69;100.00;100776.17;1749401;80;20998;-92
2022/07/24 05:09:14;;;;;;;8.55;5.90;;;;;;;20.82;100.00;100777.41;1741512;82;21177;-90
2022/07/24 05:11:41;;;;;;;6.53;5.92;;;;;;;20.95;100.00;100775.80;1796428;79;21534;-90
2022/07/24 05:14:08;;;;;;;6.53;5.95;;;;;;;21.08;100.00;100779.64;1802685;79;20998;-91
2022/07/24 05:16:36;;;;;;;5.62;5.22;;;;;;;21.21;100.00;100777.70;1809673;79;21021;-91
2022/07/24 05:19:04;;;;;;;6.60;5.62;;;;;;;21.32;100.00;100779.06;1806218;79;21579;-91
2022/07/24 05:21:31;;;;;;;7.33;5.87;;;;;;;21.42;100.00;100776.97;1802873;79;21101;-90
2022/07/24 05:24:02;;;;;;;7.62;5.83;;;;;;;21.52;100.00;100783.31;1803143;79;20966;-91
2022/07/24 05:26:31;;;;;;;6.15;5.65;;;;;;;21.63;100.00;100784.21;1805149;79;21076;-90
2022/07/24 05:28:59;;;;;;;5.95;5.37;;;;;;;21.73;100.00;100787.41;1796099;79;21061;-91
2022/07/24 05:31:27;;;;;;;6.35;5.75;;;;;;;21.86;100.00;100788.56;1802328;79;21092;-93
2022/07/24 05:33:54;;;;;;;6.37;5.25;;;;;;;21.98;100.00;100794.20;1807212;79;21230;-90
2022/07/24 05:36:22;;;;;;;6.22;5.62;;;;;;;22.09;100.00;100792.89;1807723;79;21488;-92
2022/07/24 05:38:49;;;;;;;9.05;6.20;;;;;;;22.18;100.00;100795.75;1810988;79;21045;-90
2022/07/24 05:41:16;;;;;;;6.28;5.78;;;;;;;22.28;100.00;100799.41;1811999;79;20990;-95
2022/07/24 05:43:44;;;;;;;5.58;5.17;;;;;;;22.37;100.00;100795.63;1808638;79;21541;-85
2022/07/24 05:46:12;;;;;;;6.03;5.62;;;;;;;22.49;100.00;100790.67;1802008;79;21202;-84
2022/07/24 05:48:39;;;;;;;13.45;5.92;;;;;;;22.59;100.00;100786.39;1801180;79;21496;-83
2022/07/24 05:51:08;;;;;;;7.03;5.83;;;;;;;22.67;100.00;100783.09;1800401;79;21101;-84
2022/07/24 05:53:36;;;;;;;6.15;5.60;;;;;;;22.74;100.00;100780.98;1803334;79;21042;-84
2022/07/24 05:56:04;;;;;;;5.80;5.30;;;;;;;22.84;100.00;100774.84;1800834;79;21027;-84
2022/07/24 05:58:31;;;;;;;6.10;5.60;;;;;;;22.97;100.00;100780.77;1798210;79;21363;-84
2022/07/24 06:00:59;;;;;;;6.35;5.75;;;;;;;23.08;100.00;100766.94;1799635;79;20987;-84
2022/07/24 06:03:26;;;;;;;6.17;5.70;;;;;;;23.20;100.00;100763.26;1791358;79;21022;-84
2022/07/24 06:05:53;;;;;;;6.25;5.62;;;;;;;23.35;100.00;100756.50;1802025;78;20990;-83
2022/07/24 06:08:20;;;;;;;5.65;5.15;;;;;;;23.52;100.00;100753.00;1802302;78;21670;-84
2022/07/24 06:10:49;;;;;;;7.65;5.78;;;;;;;23.66;100.00;100753.07;1801362;79;21062;-84
2022/07/24 06:13:17;;;;;;;6.37;5.75;;;;;;;23.75;100.00;100746.56;1799865;78;21085;-84
2022/07/24 06:15:46;;;;;;;6.17;5.58;;;;;;;23.85;100.00;100744.33;1795906;79;21531;-84
2022/07/24 06:18:14;;;;;;;5.92;5.42;;;;;;;23.97;100.00;100741.13;1794076;79;21030;-84
2022/07/24 06:20:42;;;;;;;5.95;5.37;;;;;;;24.07;100.00;100734.91;1801428;79;21003;-83
2022/07/24 06:23:10;;;;;;;5.83;5.30;;;;;;;24.17;100.00;100735.31;1801205;79;21453;-84
2022/07/24 06:25:37;;;;;;;7.65;5.75;;;;;;;24.30;100.00;100737.70;1798522;79;20915;-84
2022/07/24 06:28:05;;;;;;;6.37;5.83;;;;;;;24.40;100.00;100730.95;1801602;78;21469;-84
2022/07/24 06:30:32;;;;;;;6.03;5.53;;;;;;;24.52;100.00;100729.82;1807004;79;21390;-83
2022/07/24 06:33:00;;;;;;;7.08;5.83;;;;;;;24.64;100.00;100726.03;1808482;79;20983;-84
2022/07/24 06:35:32;;;;;;;6.28;5.67;;;;;;;24.71;100.00;100720.21;1808604;79;21014;-85
2022/07/24 06:38:00;;;;;;;6.30;5.72;;;;;;;24.80;100.00;100722.66;1795552;78;21003;-85
2022/07/24 06:40:27;;;;;;;6.33;5.78;;;;;;;24.89;100.00;100724.89;1801762;79;21519;-85
2022/07/24 06:42:55;;;;;;;6.78;5.53;;;;;;;24.97;100.00;100719.03;1808421;78;20970;-84
2022/07/24 06:45:22;;;;;;;5.90;5.28;;;;;;;25.09;100.00;100717.38;1796034;78;21025;-85
2022/07/24 06:47:49;;;;;;;5.90;5.40;;;;;;;25.22;100.00;100713.02;1795975;79;21245;-84
2022/07/24 06:50:16;;;;;;;6.30;5.05;;;;;;;25.31;100.00;100711.27;1803124;79;21598;-85
2022/07/24 06:52:45;;;;;;;5.85;5.30;;;;;;;25.39;100.00;100712.89;1803140;79;21081;-85
2022/07/24 06:55:13;;;;;;;5.70;4.80;;;;;;;25.48;100.00;100706.29;1802985;79;21549;-84
2022/07/24 06:57:40;;;;;;;6.10;5.10;;;;;;;25.59;100.00;100698.66;1802815;79;21003;-84
2022/07/24 07:00:10;;;;;;;8.48;4.80;;;;;;;25.70;100.00;100701.97;1795428;79;21153;-85
2022/07/24 07:02:38;;;;;;;5.97;5.00;;;;;;;25.79;100.00;100708.69;1802773;78;21524;-85
2022/07/24 07:05:08;;;;;;;4.55;4.17;;;;;;;25.89;100.00;100706.07;1802667;79;21507;-85
2022/07/24 07:07:36;;;;;;;4.40;4.00;;;;;;;25.98;100.00;100700.25;1802793;79;21501;-85
2022/07/24 07:10:05;;;;;;;5.00;4.50;;;;;;;26.03;100.00;100698.80;1803107;79;21034;-85
2022/07/24 07:12:33;;;;;;;5.85;4.42;;;;;;;26.05;100.00;100699.38;1803058;79;21770;-84
2022/07/24 07:15:00;;;;;;;5.60;4.65;;;;;;;26.11;100.00;100702.05;1803181;79;21022;-82
2022/07/24 07:17:27;;;;;;;4.85;4.53;;;;;;;26.23;100.00;100698.69;1802831;79;21109;-83
2022/07/24 07:19:54;;;;;;;5.33;4.87;;;;;;;26.34;100.00;100695.29;1794704;78;21078;-84
2022/07/24 07:22:21;;;;;;;4.70;4.40;;;;;;;26.45;100.00;100697.26;1798597;79;21029;-83
2022/07/24 07:24:49;;;;;;;4.72;4.33;;;;;;;26.55;100.00;100694.61;1803023;78;21157;-84
2022/07/24 07:27:16;;;;;;;4.58;4.25;;;;;;;26.61;100.00;100700.40;1802764;79;21074;-85
2022/07/24 07:29:43;;;;;;;4.67;4.33;;;;;;;26.70;100.00;100699.08;1795009;78;21057;-86
2022/07/24 07:32:10;;;;;;;7.03;4.40;;;;;;;26.85;100.00;100696.59;1796265;79;21039;-85
2022/07/24 07:34:37;;;;;;;4.22;3.98;;;;;;;27.02;100.00;100688.80;1799214;79;21030;-86
2022/07/24 07:37:04;;;;;;;4.40;4.00;;;;;;;27.11;100.00;100698.15;1797779;79;21214;-85
2022/07/24 07:39:32;;;;;;;4.75;4.35;;;;;;;27.18;100.00;100688.20;1797417;79;21048;-85
2022/07/24 07:41:59;;;;;;;4.42;4.03;;;;;;;27.24;100.00;100693.97;1797526;79;21022;-85
2022/07/24 07:44:35;;;;;;;4.70;4.30;;;;;;;27.32;100.00;100689.39;1801218;79;21069;-85
2022/07/24 07:47:02;;;;;;;4.28;3.92;;;;;;;27.44;100.00;100686.80;1796911;78;20978;-84
2022/07/24 07:49:40;;;;;;;4.95;4.55;;;;;;;27.50;100.00;100681.88;1796945;79;21262;-84
2022/07/24 07:52:07;;;;;;;4.85;4.53;;;;;;;27.53;100.00;100677.39;1796686;79;21016;-92
2022/07/24 07:54:34;;;;;;;5.10;4.60;;;;;;;27.57;100.00;100678.59;1795686;79;21576;-94
2022/07/24 07:57:01;;;;;;;4.47;4.15;;;;;;;27.63;100.00;100680.87;1798516;79;21543;-90
2022/07/24 07:59:29;;;;;;;5.28;3.85;;;;;;;27.68;100.00;100683.14;1798951;79;21038;-93
2022/07/24 08:01:57;;;;;;;5.35;4.50;;;;;;;27.73;92.56;100681.13;1796281;79;21129;-94
2022/07/24 08:04:25;;;;;;;4.92;4.62;;;;;;;27.77;97.72;100681.48;1794322;79;21552;-91
2022/07/24 08:06:52;;;;;;;5.05;4.55;;;;;;;27.87;96.47;100681.75;1796001;79;21038;-92
2022/07/24 08:09:20;;;;;;;5.60;3.65;;;;;;;27.97;85.83;100681.17;1789409;79;21025;-91
2022/07/24 08:11:49;;;;;;;6.37;4.80;;;;;;;28.01;84.89;100675.13;1785081;80;21016;-93
2022/07/24 08:14:16;;;;;;;5.15;4.58;;;;;;;28.08;84.59;100679.09;1784924;80;21981;-94
2022/07/24 08:16:45;;;;;;;4.83;4.42;;;;;;;28.14;83.25;100674.67;1784554;79;21290;-93
2022/07/24 08:19:14;;;;;;;5.97;4.65;;;;;;;28.11;78.27;100669.77;1784982;80;21550;-91
2022/07/24 08:21:46;;;;;;;4.83;4.53;;;;;;;28.06;81.35;100670.97;1785015;80;21025;-93
2022/07/24 08:24:20;;;;;;;5.45;5.05;;;;;;;28.03;82.42;100667.70;1784896;80;21605;-95
2022/07/24 08:26:43;;;;;;;5.33;4.92;;;;;;;27.96;77.33;100667.53;1781590;80;21160;-94
2022/07/24 08:29:10;;;;;;;5.72;5.20;;;;;;;27.96;93.67;100664.31;1785025;80;21530;-92
2022/07/24 08:31:37;;;;;;;5.22;4.83;;;;;;;28.10;87.34;100668.14;1785035;80;21072;-93
2022/07/24 08:34:05;;;;;;;5.42;4.97;;;;;;;28.22;89.04;100660.95;1785413;79;21000;-92
2022/07/24 08:36:32;;;;;;;5.15;4.30;;;;;;;28.30;85.46;100660.61;1784920;79;21781;-91
2022/07/24 08:38:59;;;;;;;6.70;4.87;;;;;;;28.23;74.24;100671.13;1784543;80;21117;-92
2022/07/24 08:41:32;;;;;;;5.60;5.10;;;;;;;28.11;80.28;100658.56;1785055;80;20985;-93
2022/07/24 08:43:59;;;;;;;5.17;4.78;;;;;;;28.15;76.80;100660.25;1784957;79;21087;-92
2022/07/24 08:46:28;;;;;;;5.80;5.25;;;;;;;28.28;82.23;100665.37;1785005;80;21017;-92
2022/07/24 08:48:57;;;;;;;5.47;4.97;;;;;;;28.42;78.57;100670.48;1784590;79;21087;-92
2022/07/24 08:51:37;;;;;;;5.65;5.15;;;;;;;28.49;77.87;100669.33;1736867;81;21564;-92
2022/07/24 08:54:02;;;;;;;5.67;5.15;;;;;;;28.56;76.97;100661.69;1728159;82;21088;-92
2022/07/24 08:56:30;;;;;;;6.70;4.55;;;;;;;28.61;73.53;100666.64;1729163;82;21084;-91
2022/07/24 08:58:57;;;;;;;5.70;5.20;;;;;;;28.57;70.48;100664.13;1728910;82;21463;-92
2022/07/24 09:01:24;;;;;;;5.20;4.80;;;;;;;28.65;73.03;100665.64;1729193;82;21143;-91
2022/07/24 09:03:51;;;;;;;5.42;5.03;;;;;;;28.68;71.36;100662.51;1729467;83;21138;-91
2022/07/24 09:06:19;;;;;;;5.33;4.92;;;;;;;28.75;68.71;100659.71;1728973;83;21099;-92
2022/07/24 09:09:02;;;;;;;6.87;5.25;;;;;;;28.86;69.72;100658.05;1728930;82;21048;-94
2022/07/24 09:11:30;;;;;;;4.87;4.58;;;;;;;28.99;66.88;100663.68;1728972;82;21028;-93
2022/07/24 09:16:48;;;;;;;5.95;5.35;;;;;;;29.16;65.03;100659.74;1729093;82;21052;-92
2022/07/24 09:19:16;;;;;;;5.42;4.97;;;;;;;29.20;64.21;100660.37;1729129;82;21100;-93
2022/07/24 09:21:44;;;;;;;5.83;5.22;;;;;;;29.21;62.26;100654.47;1728898;82;21036;-95
2022/07/24 09:24:21;;;;;;;4.90;4.50;;;;;;;29.29;65.82;100659.45;1729102;82;21021;-93
2022/07/24 09:26:55;;;;;;;6.92;5.37;;;;;;;29.37;61.39;100653.73;1729302;82;21020;-93
2022/07/24 09:29:25;;;;;;;4.90;4.50;;;;;;;29.47;63.20;100649.08;1729677;82;21123;-95
2022/07/24 09:32:01;;;;;;;5.60;5.20;;;;;;;29.51;61.73;100639.51;1729267;82;21064;-94
2022/07/24 09:34:34;;;;;;;4.95;4.40;;;;;;;29.56;60.53;100651.66;1729371;82;21088;-94
2022/07/24 09:37:04;;;;;;;5.17;4.78;;;;;;;29.59;62.90;100644.98;1725927;82;21586;-93
2022/07/24 09:39:36;;;;;;;5.97;5.10;;;;;;;29.66;63.11;100644.30;1762394;80;21086;-93
2022/07/24 09:42:06;;;;;;;6.47;5.97;;;;;;;29.73;63.11;100644.95;1737532;82;21128;-94
2022/07/24 09:44:34;;;;;;;6.00;5.42;;;;;;;29.71;64.06;100640.38;1768707;80;21038;-94
2022/07/24 09:47:08;;;;;;;7.15;5.60;;;;;;;29.68;62.49;100640.86;1814710;79;21073;-93
2022/07/24 09:49:39;;;;;;;5.40;4.92;;;;;;;29.69;62.14;100641.66;1814540;79;21064;-92
2022/07/24 09:52:13;;;;;;;5.17;4.77;;;;;;;29.68;60.51;100638.17;1815051;78;21002;-93
2022/07/24 09:54:47;;;;;;;5.40;4.90;;;;;;;29.70;60.93;100636.06;1814440;79;21131;-92
2022/07/24 09:57:30;;;;;;;5.87;5.37;;;;;;;29.75;57.32;100629.98;1814894;78;21488;-92
2022/07/24 10:00:04;;;;;;;5.60;5.20;;;;;;;29.86;56.75;100626.92;1814838;79;21061;-92
2022/07/24 10:02:34;;;;;;;5.55;5.15;;;;;;;30.04;57.15;100631.25;1810393;79;21504;-93
2022/07/24 10:05:04;;;;;;;6.22;5.80;;;;;;;30.17;58.30;100631.45;1814539;78;21025;-92
2022/07/24 10:07:34;;;;;;;6.60;6.05;;;;;;;30.16;63.04;100629.30;1815128;78;21002;-94
2022/07/24 10:10:01;;;;;;;5.70;5.30;;;;;;;30.17;64.56;100628.22;1814670;78;21104;-93
2022/07/24 10:12:31;;;;;;;5.75;5.35;;;;;;;30.20;62.81;100630.97;1814810;79;21618;-93
2022/07/24 10:15:00;;;;;;;6.57;5.13;;;;;;;29.99;61.99;100631.19;1815081;78;21048;-93
2022/07/24 10:18:04;;;;;;;5.80;5.30;;;;;;;29.54;59.81;100633.64;1814664;78;21583;-93
2022/07/24 10:20:39;;;;;;;6.00;5.45;;;;;;;29.11;58.94;100622.39;1814392;78;21355;-94
2022/07/24 10:23:08;;;;;;;5.95;5.35;;;;;;;29.01;65.45;100624.06;1808326;79;21108;-94
2022/07/24 10:25:55;;;;;;;7.15;5.42;;;;;;;29.28;66.45;100617.59;1747580;82;21034;-93
2022/07/24 10:28:42;;;;;;;5.80;5.40;;;;;;;29.62;68.06;100616.86;1766783;79;21480;-93
2022/07/24 10:31:13;;;;;;;5.75;5.00;;;;;;;29.79;65.68;100617.69;1746519;81;21045;-92
2022/07/24 10:33:42;;;;;;;6.00;5.50;;;;;;;29.77;67.97;100610.40;1766797;80;21210;-93
2022/07/24 10:36:25;;;;;;;6.47;5.83;;;;;;;29.75;69.10;100615.22;1760895;80;21595;-92
2022/07/24 10:39:03;;;;;;;5.75;5.35;;;;;;;29.68;68.09;100617.25;1803344;78;21579;-93
2022/07/24 10:41:31;;;;;;;6.87;5.00;;;;;;;29.53;70.79;100613.77;1811867;79;21022;-92
2022/07/24 10:44:20;;;;;;;6.58;6.08;;;;;;;29.52;78.27;100606.78;1808874;79;21462;-94
2022/07/24 10:47:08;;;;;;;6.60;5.85;;;;;;;29.70;72.78;100613.78;1801782;77;21121;-93
2022/07/24 10:49:50;;;;;;;6.00;5.45;;;;;;;29.90;66.03;100607.41;1799676;79;21595;-93
2022/07/24 10:52:25;;;;;;;5.50;5.10;;;;;;;30.04;67.09;100597.70;1797452;79;20999;-93
2022/07/24 10:55:32;;;;;;;5.30;4.90;;;;;;;30.22;67.46;100604.66;1796707;79;21073;-94
2022/07/24 10:58:15;;;;;;;5.83;4.60;;;;;;;30.38;66.04;100601.12;1799350;79;20998;-94
2022/07/24 11:00:49;;;;;;;5.33;4.92;;;;;;;30.52;62.28;100604.30;1798418;79;21156;-93
2022/07/24 11:03:27;;;;;;;5.42;5.03;;;;;;;30.37;56.69;100599.49;1799790;79;21053;-94
2022/07/24 11:06:08;;;;;;;4.50;4.20;;;;;;;30.01;54.79;100597.67;1798556;79;21034;-94
2022/07/24 11:08:51;;;;;;;4.80;4.45;;;;;;;29.72;59.34;100598.26;1794951;79;21529;-93
2022/07/24 11:11:23;;;;;;;6.03;4.92;;;;;;;29.74;63.43;100589.44;1799440;79;21038;-93
2022/07/24 11:13:53;;;;;;;4.65;4.25;;;;;;;30.00;58.71;100596.58;1794997;79;21275;-94
2022/07/24 11:16:24;;;;;;;5.40;4.40;;;;;;;30.15;57.07;100591.43;1796975;78;20920;-94
2022/07/24 11:19:03;;;;;;;4.87;4.47;;;;;;;30.25;58.65;100586.72;1797350;79;27170;-93
2022/07/24 11:21:37;;;;;;;6.30;4.10;;;;;;;30.32;53.62;100587.89;1797809;78;21015;-94
2022/07/24 11:24:22;;;;;;;6.78;4.25;;;;;;;30.33;54.49;100580.92;1802365;79;21579;-93
2022/07/24 11:26:56;;;;;;;3.83;3.55;;;;;;;30.37;53.21;100580.70;1798088;78;21067;-93
2022/07/24 11:29:27;;;;;;;4.12;3.83;;;;;;;30.47;54.39;100571.98;1796847;79;21105;-93
2022/07/24 11:32:02;;;;;;;6.90;4.87;;;;;;;30.61;52.32;100572.42;1802004;78;21010;-93